Nearby METAR Reports

 

KSJC - San Jose, California, USA
Distance from station: NE 14km
Aktualizace: 19/11/2017 14:53
Polojasno
Polojasno
 Wind from calm
Vítr: Klidny
Teplota: 6°C
Rosný bod: 4°C
Vlhkost: 87%
Tlak: 1021 hPa
Clouds: Polojasno
Visibility: 16 km
Cloud details: Few Clouds 1067 m
Polojasno 2438 m
2017/11/19 13:53 KSJC 191353Z 00000KT 10SM FEW035 SCT080 06/04 A3015 RMK AO2 SLP210 T00610044
KNUQ - Moffett Nas/Mtn, California, USA
Distance from station: N 14km
Aktualizace: 19/11/2017 13:56
Jasno
Jasno
 Wind from calm
Vítr: Klidny
Teplota: 6°C
Rosný bod: 4°C
Vlhkost: 87%
Tlak: 1021.7 hPa
Clouds: Jasno
Visibility: 16 km
2017/11/19 12:56 KNUQ 191256Z 00000KT 10SM CLR 06/04 A3017 RMK AO2 SLP218 T00610044
 
KPAO - Palo Alto, California, USA
Distance from station: NNW 23km
Aktualizace: 19/11/2017 05:47
Neaktuální
Polojasno
Polojasno
 Wind from calm
Vítr: Klidny
Teplota: 9°C
Rosný bod: 6°C
Vlhkost: 82%
Tlak: 1021.7 hPa
Clouds: Polojasno
Visibility: 16 km
Cloud details: Polojasno 5486 m
2017/11/19 04:47 KPAO 190447Z 00000KT 10SM SCT180 09/06 A3017 RMK LAST
KRHV - San Jose/Reid, California, USA
Distance from station: ENE 19km
Aktualizace: 19/11/2017 06:47
Neaktuální
Jasno
Jasno
 Wind from calm
Vítr: Klidny
Teplota: 10°C
Rosný bod: 6°C
Vlhkost: 76%
Tlak: 1021 hPa
Clouds: Jasno
Visibility: 16 km
2017/11/19 05:47 KRHV 190547Z 00000KT 10SM SKC 10/06 A3015 RMK LAST
 
KOAK - Oakland, California, USA
Distance from station: NNW 50km
Aktualizace: 19/11/2017 14:53
Skoro zataženo
Skoro zataženo
 Wind from NE
Vítr: NE 6 km/h
Teplota: 5°C
Rosný bod: 4°C
Vlhkost: 93%
Tlak: 1021.3 hPa
Clouds: Skoro zataženo
Visibility: 16 km
Cloud details: Skoro zataženo 7620 m
2017/11/19 13:53 KOAK 191353Z 05003KT 10SM BKN250 05/04 A3016 RMK AO2 SLP211 T00500039
KSQL - San Carlos Airpo, California, USA
Distance from station: NW 34km
Aktualizace: 19/11/2017 14:55
Jasno
Jasno
 Wind from calm
Vítr: Klidny
Teplota: 7°C
Rosný bod: 5°C
Vlhkost: 87%
Tlak: 1021 hPa
Clouds: Jasno
Visibility: 16 km
2017/11/19 13:55 KSQL 191355Z AUTO 00000KT 10SM CLR 07/05 A3015 RMK AO2
 
KSFO - San Francisco, California, USA
Distance from station: NW 49km
Aktualizace: 19/11/2017 13:56
Jasno
Jasno
 Wind from SSW
Vítr: SSW 6 km/h
Teplota: 8°C
Rosný bod: 6°C
Vlhkost: 87%
Tlak: 1021 hPa
Clouds: Jasno
Visibility: 16 km
2017/11/19 12:56 KSFO 191256Z 20003KT 10SM CLR 08/06 A3015 RMK AO2 SLP210 T00830061
KE16 - San Martin, California, USA
Distance from station: ESE 43km
Aktualizace: 19/11/2017 14:35
Jasno
Jasno
 Wind from calm
Vítr: Klidny
Teplota: 3°C
Rosný bod: 3°C
Vlhkost: 100%
Tlak: 1022 hPa
Clouds: Jasno
Visibility: 16 km
2017/11/19 13:35 KE16 191335Z AUTO 00000KT 10SM CLR 03/03 A3018 RMK AO2 PWINO PNO
 
KWVI - Watsonville, California, USA
Distance from station: SSE 44km
Aktualizace: 19/11/2017 14:53
Jasno
Jasno
 Wind from calm
Vítr: Klidny
Teplota: 4°C
Rosný bod: 4°C
Vlhkost: 100%
Tlak: 1020.7 hPa
Clouds: Jasno
Visibility: 16 km
2017/11/19 13:53 KWVI 191353Z AUTO 00000KT 10SM CLR 04/04 A3014 RMK AO2 SLP208 T00440044
KHAF - Half Moon Bay, California, USA
Distance from station: WNW 50km
Aktualizace: 19/11/2017 14:55
Jasno
Jasno
 Wind from calm
Vítr: Klidny
Teplota: 4°C
Rosný bod: 3°C
Vlhkost: 93%
Tlak: 1019.3 hPa
Clouds: Jasno
Visibility: 16 km
2017/11/19 13:55 KHAF 191355Z AUTO 00000KT 10SM CLR 04/03 A3010 RMK AO2
 
KHWD - Hayward, California, USA
Distance from station: N 44km
Aktualizace: 19/11/2017 14:54
Jasno
Jasno
 Wind from E
Vítr: E 6 km/h
Teplota: 7°C
Rosný bod: 3°C
Vlhkost: 76%
Tlak: 1021 hPa
Clouds: Jasno
Visibility: 16 km
2017/11/19 13:54 KHWD 191354Z 09003KT 10SM CLR 07/03 A3015 RMK AO2 SLP220 T00670028
KLVK - Livermore, California, USA
Distance from station: NNE 51km
Aktualizace: 19/11/2017 14:53
Jasno
Jasno
 Wind from E
Vítr: E 7 km/h
Teplota: 2°C
Wind Chill: 0°C
Rosný bod: 2°C
Vlhkost: 100%
Tlak: 1021 hPa
Clouds: Jasno
Visibility: 16 km
2017/11/19 13:53 KLVK 191353Z AUTO 09004KT 10SM CLR 02/02 A3015 RMK AO2 SLP210 T00220017